Time,TemperatureF,DewpointF,PressureIn,WindDirection,WindDirectionDegrees,WindSpeedMPH,WindSpeedGustMPH,Humidity,HourlyPrecipIn,Conditions,Clouds,dailyrainin,SoftwareType,DateUTC
2013-08-17 00:13:00,71.7,57.0,30.15,SE,142,0.0,3.0,61,0.00,,,0.00,weatherlink.com 1.10,2013-08-17 04:13:00,
2013-08-17 00:28:00,71.7,57.0,30.15,NE,55,2.0,3.0,60,0.00,,,0.00,weatherlink.com 1.10,2013-08-17 04:28:00,
2013-08-17 00:43:00,71.6,57.0,30.15,ESE,115,0.0,2.0,60,0.00,,,0.00,weatherlink.com 1.10,2013-08-17 04:43:00,
2013-08-17 00:58:00,71.6,57.0,30.15,ENE,72,0.0,2.0,60,0.00,,,0.00,weatherlink.com 1.10,2013-08-17 04:58:00,
2013-08-17 01:13:00,71.5,57.0,30.15,East,80,0.0,2.0,61,0.00,,,0.00,weatherlink.com 1.10,2013-08-17 05:13:00,
2013-08-17 01:28:00,71.2,58.0,30.15,ENE,65,0.0,3.0,63,0.00,,,0.00,weatherlink.com 1.10,2013-08-17 05:28:00,
2013-08-17 01:43:00,70.7,58.0,30.15,ENE,77,0.0,1.0,65,0.00,,,0.00,weatherlink.com 1.10,2013-08-17 05:43:00,
2013-08-17 01:59:00,70.2,58.0,30.15,NE,49,1.0,2.0,66,0.00,,,0.00,weatherlink.com 1.10,2013-08-17 05:59:00,
2013-08-17 02:14:00,69.8,58.0,30.14,East,82,0.0,2.0,67,0.00,,,0.00,weatherlink.com 1.10,2013-08-17 06:14:00,
2013-08-17 02:29:00,69.4,58.0,30.14,East,85,1.0,3.0,67,0.00,,,0.00,weatherlink.com 1.10,2013-08-17 06:29:00,
2013-08-17 02:44:00,69.2,58.0,30.14,NE,55,0.0,1.0,68,0.00,,,0.00,weatherlink.com 1.10,2013-08-17 06:44:00,
2013-08-17 02:59:00,69.0,58.0,30.14,East,92,1.0,3.0,69,0.00,,,0.00,weatherlink.com 1.10,2013-08-17 06:59:00,
2013-08-17 03:14:00,68.7,59.0,30.14,NE,49,0.0,3.0,70,0.00,,,0.00,weatherlink.com 1.10,2013-08-17 07:14:00,
2013-08-17 03:29:00,68.5,59.0,30.13,ENE,63,0.0,2.0,71,0.00,,,0.00,weatherlink.com 1.10,2013-08-17 07:29:00,
2013-08-17 03:44:00,68.3,59.0,30.14,East,86,1.0,2.0,71,0.00,,,0.00,weatherlink.com 1.10,2013-08-17 07:44:00,
2013-08-17 03:59:00,68.1,59.0,30.14,ENE,75,0.0,1.0,72,0.00,,,0.00,weatherlink.com 1.10,2013-08-17 07:59:00,
2013-08-17 04:14:00,67.9,59.0,30.14,East,91,0.0,2.0,72,0.00,,,0.00,weatherlink.com 1.10,2013-08-17 08:14:00,
2013-08-17 04:29:00,67.7,59.0,30.14,East,82,0.0,0.0,73,0.00,,,0.00,weatherlink.com 1.10,2013-08-17 08:29:00,
2013-08-17 04:44:00,67.4,58.0,30.14,ENE,67,0.0,1.0,73,0.00,,,0.00,weatherlink.com 1.10,2013-08-17 08:44:00,
2013-08-17 04:59:00,67.1,59.0,30.14,ENE,67,0.0,1.0,74,0.00,,,0.00,weatherlink.com 1.10,2013-08-17 08:59:00,
2013-08-17 05:14:00,67.2,59.0,30.14,ENE,76,1.0,2.0,74,0.00,,,0.00,weatherlink.com 1.10,2013-08-17 09:14:00,
2013-08-17 05:29:00,67.3,58.0,30.14,ENE,78,0.0,1.0,73,0.00,,,0.00,weatherlink.com 1.10,2013-08-17 09:29:00,
2013-08-17 05:44:00,67.3,58.0,30.14,ENE,72,0.0,1.0,73,0.00,,,0.00,weatherlink.com 1.10,2013-08-17 09:44:00,
2013-08-17 05:59:00,67.3,58.0,30.14,ENE,65,0.0,2.0,73,0.00,,,0.00,weatherlink.com 1.10,2013-08-17 09:59:00,
2013-08-17 06:14:00,67.2,58.0,30.14,ENE,64,1.0,3.0,73,0.00,,,0.00,weatherlink.com 1.10,2013-08-17 10:14:00,
2013-08-17 06:29:00,66.9,58.0,30.14,NE,56,0.0,3.0,74,0.00,,,0.00,weatherlink.com 1.10,2013-08-17 10:29:00,
2013-08-17 06:44:00,66.6,58.0,30.15,ENE,72,1.0,2.0,75,0.00,,,0.00,weatherlink.com 1.10,2013-08-17 10:44:00,
2013-08-17 07:40:00,65.9,59.0,30.15,NNE,23,0.0,3.0,78,0.00,,,0.00,weatherlink.com 1.10,2013-08-17 11:40:00,
2013-08-17 07:59:00,66.1,59.0,30.16,ENE,57,2.0,5.0,77,0.00,,,0.00,weatherlink.com 1.10,2013-08-17 11:59:00,
2013-08-17 08:14:00,66.2,59.0,30.16,SE,139,0.0,4.0,77,0.00,,,0.00,weatherlink.com 1.10,2013-08-17 12:14:00,
2013-08-17 08:29:00,66.5,59.0,30.16,ENE,63,4.0,5.0,76,0.00,,,0.00,weatherlink.com 1.10,2013-08-17 12:29:00,
2013-08-17 08:44:00,66.6,59.0,30.16,ENE,71,0.0,5.0,76,0.00,,,0.00,weatherlink.com 1.10,2013-08-17 12:44:00,
2013-08-17 08:59:00,67.1,59.0,30.17,ENE,72,1.0,3.0,76,0.00,,,0.00,weatherlink.com 1.10,2013-08-17 12:59:00,
2013-08-17 09:14:00,67.7,59.0,30.17,SE,146,0.0,3.0,74,0.00,,,0.00,weatherlink.com 1.10,2013-08-17 13:14:00,
2013-08-17 09:29:00,68.2,60.0,30.18,East,88,0.0,2.0,74,0.00,,,0.00,weatherlink.com 1.10,2013-08-17 13:29:00,
2013-08-17 09:44:00,69.0,60.0,30.18,SE,135,0.0,1.0,73,0.00,,,0.00,weatherlink.com 1.10,2013-08-17 13:44:00,
2013-08-17 09:59:00,69.1,60.0,30.18,West,278,0.0,1.0,72,0.00,,,0.00,weatherlink.com 1.10,2013-08-17 13:59:00,
2013-08-17 10:29:00,70.7,60.0,30.18,NNE,12,0.0,1.0,70,0.00,,,0.00,weatherlink.com 1.10,2013-08-17 14:29:00,
2013-08-17 11:00:00,72.2,61.0,30.18,SE,146,1.0,3.0,67,0.00,,,0.00,weatherlink.com 1.10,2013-08-17 15:00:00,
2013-08-17 11:15:00,73.9,61.0,30.18,ENE,70,1.0,3.0,65,0.00,,,0.00,weatherlink.com 1.10,2013-08-17 15:15:00,
2013-08-17 11:30:00,74.4,61.0,30.18,ENE,72,2.0,4.0,63,0.00,,,0.00,weatherlink.com 1.10,2013-08-17 15:30:00,
2013-08-17 11:45:00,75.9,62.0,30.18,ENE,71,0.0,5.0,62,0.00,,,0.00,weatherlink.com 1.10,2013-08-17 15:45:00,
2013-08-17 12:15:00,76.4,61.0,30.16,ENE,72,4.0,5.0,60,0.00,,,0.00,weatherlink.com 1.10,2013-08-17 16:15:00,
2013-08-17 12:29:00,76.8,62.0,30.16,SSE,160,3.0,5.0,60,0.00,,,0.00,weatherlink.com 1.10,2013-08-17 16:29:00,
2013-08-17 14:05:00,80.7,64.0,30.13,NNE,19,2.0,7.0,57,0.00,,,0.00,weatherlink.com 1.10,2013-08-17 18:05:00,
2013-08-17 14:15:00,81.7,64.0,30.13,SE,136,4.0,6.0,55,0.00,,,0.00,weatherlink.com 1.10,2013-08-17 18:15:00,
2013-08-17 14:30:00,82.9,64.0,30.12,West,275,2.0,5.0,54,0.00,,,0.00,weatherlink.com 1.10,2013-08-17 18:30:00,
2013-08-17 14:45:00,83.4,64.0,30.12,South,191,0.0,5.0,53,0.00,,,0.00,weatherlink.com 1.10,2013-08-17 18:45:00,
2013-08-17 15:00:00,82.7,64.0,30.12,SSE,156,2.0,6.0,53,0.00,,,0.00,weatherlink.com 1.10,2013-08-17 19:00:00,
2013-08-17 15:15:00,83.1,64.0,30.11,East,82,3.0,5.0,53,0.00,,,0.00,weatherlink.com 1.10,2013-08-17 19:15:00,
2013-08-17 15:30:00,83.2,65.0,30.11,North,9,0.0,4.0,55,0.00,,,0.00,weatherlink.com 1.10,2013-08-17 19:30:00,
2013-08-17 15:45:00,83.4,65.0,30.11,ENE,64,4.0,7.0,54,0.00,,,0.00,weatherlink.com 1.10,2013-08-17 19:45:00,
2013-08-17 16:00:00,82.7,64.0,30.11,East,93,3.0,6.0,54,0.00,,,0.00,weatherlink.com 1.10,2013-08-17 20:00:00,
2013-08-17 16:15:00,83.1,64.0,30.10,ENE,68,4.0,8.0,53,0.00,,,0.00,weatherlink.com 1.10,2013-08-17 20:15:00,
2013-08-17 16:30:00,83.5,64.0,30.10,ENE,70,3.0,4.0,52,0.00,,,0.00,weatherlink.com 1.10,2013-08-17 20:30:00,
2013-08-17 16:45:00,83.0,63.0,30.10,ENE,66,4.0,6.0,51,0.00,,,0.00,weatherlink.com 1.10,2013-08-17 20:45:00,
2013-08-17 17:00:00,82.6,64.0,30.10,East,85,0.0,3.0,54,0.00,,,0.00,weatherlink.com 1.10,2013-08-17 21:00:00,
2013-08-17 17:15:00,82.5,64.0,30.10,ENE,71,2.0,4.0,53,0.00,,,0.00,weatherlink.com 1.10,2013-08-17 21:15:00,
2013-08-17 17:30:00,82.0,65.0,30.10,SSE,161,0.0,4.0,57,0.00,,,0.00,weatherlink.com 1.10,2013-08-17 21:30:00,
2013-08-17 17:45:00,81.4,69.0,30.10,SW,222,0.0,1.0,66,0.00,,,0.00,weatherlink.com 1.10,2013-08-17 21:45:00,
2013-08-17 18:00:00,79.7,69.0,30.10,SSE,168,0.0,1.0,69,0.00,,,0.00,weatherlink.com 1.10,2013-08-17 22:00:00,
2013-08-17 18:15:00,79.8,68.0,30.10,SW,215,0.0,0.0,67,0.00,,,0.00,weatherlink.com 1.10,2013-08-17 22:15:00,
2013-08-17 18:30:00,79.9,68.0,30.09,South,177,0.0,2.0,66,0.00,,,0.00,weatherlink.com 1.10,2013-08-17 22:30:00,
2013-08-17 18:46:00,80.3,65.0,30.10,East,86,0.0,2.0,59,0.00,,,0.00,weatherlink.com 1.10,2013-08-17 22:46:00,
2013-08-17 19:01:00,80.0,63.0,30.10,ESE,119,2.0,6.0,57,0.00,,,0.00,weatherlink.com 1.10,2013-08-17 23:01:00,
2013-08-17 19:16:00,79.7,63.0,30.10,ENE,62,0.0,3.0,57,0.00,,,0.00,weatherlink.com 1.10,2013-08-17 23:16:00,
2013-08-17 19:31:00,79.6,63.0,30.10,East,91,0.0,6.0,57,0.00,,,0.00,weatherlink.com 1.10,2013-08-17 23:31:00,
2013-08-17 19:46:00,79.6,63.0,30.10,East,81,0.0,4.0,58,0.00,,,0.00,weatherlink.com 1.10,2013-08-17 23:46:00,
2013-08-17 20:10:00,79.1,63.0,30.10,ENE,66,2.0,5.0,58,0.00,,,0.00,weatherlink.com 1.10,2013-08-18 00:10:00,
2013-08-17 20:31:00,77.9,64.0,30.10,South,170,0.0,2.0,63,0.00,,,0.00,weatherlink.com 1.10,2013-08-18 00:31:00,
2013-08-17 21:01:00,76.4,63.0,30.10,East,86,3.0,6.0,64,0.00,,,0.00,weatherlink.com 1.10,2013-08-18 01:01:00,
2013-08-17 21:16:00,75.6,63.0,30.11,SSE,156,0.0,1.0,66,0.00,,,0.00,weatherlink.com 1.10,2013-08-18 01:16:00,
2013-08-17 22:01:00,73.8,65.0,30.11,SSE,157,0.0,1.0,73,0.00,,,0.00,weatherlink.com 1.10,2013-08-18 02:01:00,
2013-08-17 22:16:00,73.2,64.0,30.12,SE,145,0.0,1.0,74,0.00,,,0.00,weatherlink.com 1.10,2013-08-18 02:16:00,
2013-08-17 22:31:00,73.1,65.0,30.12,East,95,0.0,0.0,75,0.00,,,0.00,weatherlink.com 1.10,2013-08-18 02:31:00,
2013-08-17 22:46:00,73.0,65.0,30.13,SE,136,0.0,1.0,75,0.00,,,0.00,weatherlink.com 1.10,2013-08-18 02:46:00,
2013-08-17 23:01:00,73.3,64.0,30.13,SSE,153,2.0,5.0,73,0.00,,,0.00,weatherlink.com 1.10,2013-08-18 03:01:00,
2013-08-17 23:16:00,73.8,64.0,30.13,SE,129,0.0,5.0,71,0.00,,,0.00,weatherlink.com 1.10,2013-08-18 03:16:00,
2013-08-17 23:31:00,73.6,64.0,30.13,ENE,59,0.0,3.0,72,0.00,,,0.00,weatherlink.com 1.10,2013-08-18 03:31:00,
2013-08-17 23:46:00,72.7,64.0,30.13,SW,236,0.0,2.0,74,0.00,,,0.00,weatherlink.com 1.10,2013-08-18 03:46:00,